sensor_id;sensor_type;location;lat;lon;timestamp;temperature;humidity
33093;DHT22;19456;46.104;12.908;2022-09-23T00:01:18;12.20;99.90
33093;DHT22;19456;46.104;12.908;2022-09-23T00:03:44;12.20;99.90
33093;DHT22;19456;46.104;12.908;2022-09-23T00:06:11;12.20;99.90
33093;DHT22;19456;46.104;12.908;2022-09-23T00:08:37;12.20;99.90
33093;DHT22;19456;46.104;12.908;2022-09-23T00:11:10;12.10;99.90
33093;DHT22;19456;46.104;12.908;2022-09-23T00:13:37;11.90;99.90
33093;DHT22;19456;46.104;12.908;2022-09-23T00:16:03;11.90;99.90
33093;DHT22;19456;46.104;12.908;2022-09-23T00:18:29;11.90;99.90
33093;DHT22;19456;46.104;12.908;2022-09-23T00:20:55;11.90;99.90
33093;DHT22;19456;46.104;12.908;2022-09-23T00:23:20;12.00;99.90
33093;DHT22;19456;46.104;12.908;2022-09-23T00:25:54;12.10;99.90
33093;DHT22;19456;46.104;12.908;2022-09-23T00:28:19;12.10;99.90
33093;DHT22;19456;46.104;12.908;2022-09-23T00:30:45;12.10;99.90
33093;DHT22;19456;46.104;12.908;2022-09-23T00:33:10;12.10;99.90
33093;DHT22;19456;46.104;12.908;2022-09-23T00:35:36;12.10;99.90
33093;DHT22;19456;46.104;12.908;2022-09-23T00:38:03;12.10;99.90
33093;DHT22;19456;46.104;12.908;2022-09-23T00:40:28;12.00;99.90
33093;DHT22;19456;46.104;12.908;2022-09-23T00:42:54;12.00;99.90
33093;DHT22;19456;46.104;12.908;2022-09-23T00:45:19;12.00;99.90
33093;DHT22;19456;46.104;12.908;2022-09-23T00:52:40;11.70;99.90
33093;DHT22;19456;46.104;12.908;2022-09-23T00:55:08;11.50;99.90
33093;DHT22;19456;46.104;12.908;2022-09-23T00:57:35;11.50;99.90
33093;DHT22;19456;46.104;12.908;2022-09-23T01:00:03;11.40;99.90
33093;DHT22;19456;46.104;12.908;2022-09-23T01:02:29;11.30;99.90
33093;DHT22;19456;46.104;12.908;2022-09-23T01:04:55;11.30;99.90
33093;DHT22;19456;46.104;12.908;2022-09-23T01:07:21;11.40;99.90
33093;DHT22;19456;46.104;12.908;2022-09-23T01:09:46;11.50;99.90
33093;DHT22;19456;46.104;12.908;2022-09-23T01:14:47;11.40;99.90
33093;DHT22;19456;46.104;12.908;2022-09-23T01:17:35;11.30;99.90
33093;DHT22;19456;46.104;12.908;2022-09-23T01:22:52;11.40;99.90
33093;DHT22;19456;46.104;12.908;2022-09-23T01:35:47;11.20;99.90
33093;DHT22;19456;46.104;12.908;2022-09-23T01:40:58;11.30;99.90
33093;DHT22;19456;46.104;12.908;2022-09-23T01:46:13;11.30;99.90
33093;DHT22;19456;46.104;12.908;2022-09-23T01:51:31;11.10;99.90
33093;DHT22;19456;46.104;12.908;2022-09-23T01:54:02;11.00;99.90
33093;DHT22;19456;46.104;12.908;2022-09-23T01:56:37;11.10;99.90
33093;DHT22;19456;46.104;12.908;2022-09-23T02:01:33;11.30;99.90
33093;DHT22;19456;46.104;12.908;2022-09-23T02:04:06;11.30;99.90
33093;DHT22;19456;46.104;12.908;2022-09-23T02:06:38;11.30;99.90
33093;DHT22;19456;46.104;12.908;2022-09-23T02:09:13;11.30;99.90
33093;DHT22;19456;46.104;12.908;2022-09-23T02:11:40;11.30;99.90
33093;DHT22;19456;46.104;12.908;2022-09-23T02:21:59;11.10;99.90
33093;DHT22;19456;46.104;12.908;2022-09-23T02:24:29;11.00;99.90
33093;DHT22;19456;46.104;12.908;2022-09-23T02:26:59;10.80;99.90
33093;DHT22;19456;46.104;12.908;2022-09-23T02:29:30;10.60;99.90
33093;DHT22;19456;46.104;12.908;2022-09-23T02:34:41;10.70;99.90
33093;DHT22;19456;46.104;12.908;2022-09-23T02:42:20;10.90;99.90
33093;DHT22;19456;46.104;12.908;2022-09-23T02:44:46;10.90;99.90
33093;DHT22;19456;46.104;12.908;2022-09-23T02:47:12;10.80;99.90
33093;DHT22;19456;46.104;12.908;2022-09-23T02:49:37;10.70;99.90
33093;DHT22;19456;46.104;12.908;2022-09-23T02:52:03;10.80;99.90
33093;DHT22;19456;46.104;12.908;2022-09-23T02:54:30;10.90;99.90
33093;DHT22;19456;46.104;12.908;2022-09-23T02:56:58;10.90;99.90
33093;DHT22;19456;46.104;12.908;2022-09-23T02:59:25;11.00;99.90
33093;DHT22;19456;46.104;12.908;2022-09-23T03:04:52;11.10;99.90
33093;DHT22;19456;46.104;12.908;2022-09-23T03:12:46;11.30;99.90
33093;DHT22;19456;46.104;12.908;2022-09-23T03:18:16;11.20;99.90
33093;DHT22;19456;46.104;12.908;2022-09-23T03:23:23;10.90;99.90
33093;DHT22;19456;46.104;12.908;2022-09-23T03:25:50;10.80;99.90
33093;DHT22;19456;46.104;12.908;2022-09-23T03:28:18;10.70;99.90
33093;DHT22;19456;46.104;12.908;2022-09-23T03:30:46;10.60;99.90
33093;DHT22;19456;46.104;12.908;2022-09-23T03:33:12;10.50;99.90
33093;DHT22;19456;46.104;12.908;2022-09-23T03:35:41;10.40;99.90
33093;DHT22;19456;46.104;12.908;2022-09-23T03:38:28;10.40;99.90
33093;DHT22;19456;46.104;12.908;2022-09-23T03:40:58;10.60;99.90
33093;DHT22;19456;46.104;12.908;2022-09-23T03:43:25;10.60;99.90
33093;DHT22;19456;46.104;12.908;2022-09-23T03:45:52;10.70;99.90
33093;DHT22;19456;46.104;12.908;2022-09-23T03:48:22;10.80;99.90
33093;DHT22;19456;46.104;12.908;2022-09-23T03:50:47;10.90;99.90
33093;DHT22;19456;46.104;12.908;2022-09-23T03:53:13;10.90;99.90
33093;DHT22;19456;46.104;12.908;2022-09-23T03:55:39;10.80;99.90
33093;DHT22;19456;46.104;12.908;2022-09-23T03:58:05;10.80;99.90
33093;DHT22;19456;46.104;12.908;2022-09-23T04:00:32;10.90;99.90
33093;DHT22;19456;46.104;12.908;2022-09-23T04:03:00;10.80;99.90
33093;DHT22;19456;46.104;12.908;2022-09-23T04:05:25;10.70;99.90
33093;DHT22;19456;46.104;12.908;2022-09-23T04:07:51;10.60;99.90
33093;DHT22;19456;46.104;12.908;2022-09-23T04:10:17;10.60;99.90
33093;DHT22;19456;46.104;12.908;2022-09-23T04:12:43;10.60;99.90
33093;DHT22;19456;46.104;12.908;2022-09-23T04:15:08;10.50;99.90
33093;DHT22;19456;46.104;12.908;2022-09-23T04:17:34;10.50;99.90
33093;DHT22;19456;46.104;12.908;2022-09-23T04:20:00;10.40;99.90
33093;DHT22;19456;46.104;12.908;2022-09-23T04:22:25;10.30;99.90
33093;DHT22;19456;46.104;12.908;2022-09-23T04:24:51;10.40;99.90
33093;DHT22;19456;46.104;12.908;2022-09-23T04:27:16;10.30;99.90
33093;DHT22;19456;46.104;12.908;2022-09-23T04:29:42;10.20;99.90
33093;DHT22;19456;46.104;12.908;2022-09-23T04:32:07;10.00;99.90
33093;DHT22;19456;46.104;12.908;2022-09-23T04:34:33;9.80;99.90
33093;DHT22;19456;46.104;12.908;2022-09-23T04:36:58;9.80;99.90
33093;DHT22;19456;46.104;12.908;2022-09-23T04:39:24;9.80;99.90
33093;DHT22;19456;46.104;12.908;2022-09-23T04:41:49;9.70;99.90
33093;DHT22;19456;46.104;12.908;2022-09-23T04:44:15;9.60;99.90
33093;DHT22;19456;46.104;12.908;2022-09-23T04:46:41;9.70;99.90
33093;DHT22;19456;46.104;12.908;2022-09-23T04:49:08;9.60;99.90
33093;DHT22;19456;46.104;12.908;2022-09-23T04:51:36;9.60;99.90
33093;DHT22;19456;46.104;12.908;2022-09-23T04:54:02;9.50;99.90
33093;DHT22;19456;46.104;12.908;2022-09-23T04:56:28;9.50;99.90
33093;DHT22;19456;46.104;12.908;2022-09-23T04:58:56;9.60;99.90
33093;DHT22;19456;46.104;12.908;2022-09-23T05:01:23;9.50;99.90
33093;DHT22;19456;46.104;12.908;2022-09-23T05:03:51;9.20;99.90
33093;DHT22;19456;46.104;12.908;2022-09-23T05:06:17;9.20;99.90
33093;DHT22;19456;46.104;12.908;2022-09-23T05:08:47;9.20;99.90
33093;DHT22;19456;46.104;12.908;2022-09-23T05:11:12;9.10;99.90
33093;DHT22;19456;46.104;12.908;2022-09-23T05:13:38;9.20;99.90
33093;DHT22;19456;46.104;12.908;2022-09-23T05:16:05;9.30;99.90
33093;DHT22;19456;46.104;12.908;2022-09-23T05:18:32;9.40;99.90
33093;DHT22;19456;46.104;12.908;2022-09-23T05:20:58;9.50;99.90
33093;DHT22;19456;46.104;12.908;2022-09-23T05:23:24;9.50;99.90
33093;DHT22;19456;46.104;12.908;2022-09-23T05:25:59;9.50;99.90
33093;DHT22;19456;46.104;12.908;2022-09-23T05:28:28;9.50;99.90
33093;DHT22;19456;46.104;12.908;2022-09-23T05:33:27;9.70;99.90
33093;DHT22;19456;46.104;12.908;2022-09-23T05:35:54;9.90;99.90
33093;DHT22;19456;46.104;12.908;2022-09-23T05:38:19;9.90;99.90
33093;DHT22;19456;46.104;12.908;2022-09-23T05:40:45;10.10;99.90
33093;DHT22;19456;46.104;12.908;2022-09-23T05:43:10;10.10;99.90
33093;DHT22;19456;46.104;12.908;2022-09-23T05:45:36;10.10;99.90
33093;DHT22;19456;46.104;12.908;2022-09-23T05:48:02;10.20;99.90
33093;DHT22;19456;46.104;12.908;2022-09-23T05:50:27;10.40;99.90
33093;DHT22;19456;46.104;12.908;2022-09-23T05:52:53;10.50;99.90
33093;DHT22;19456;46.104;12.908;2022-09-23T05:55:18;10.50;99.90
33093;DHT22;19456;46.104;12.908;2022-09-23T05:57:44;10.60;99.90
33093;DHT22;19456;46.104;12.908;2022-09-23T06:00:10;10.70;99.90
33093;DHT22;19456;46.104;12.908;2022-09-23T06:02:36;10.70;99.90
33093;DHT22;19456;46.104;12.908;2022-09-23T06:05:01;10.80;99.90
33093;DHT22;19456;46.104;12.908;2022-09-23T06:07:27;11.10;99.90
33093;DHT22;19456;46.104;12.908;2022-09-23T06:09:53;11.40;99.90
33093;DHT22;19456;46.104;12.908;2022-09-23T06:12:18;11.60;99.90
33093;DHT22;19456;46.104;12.908;2022-09-23T06:14:46;11.80;99.90
33093;DHT22;19456;46.104;12.908;2022-09-23T06:17:14;12.00;99.90
33093;DHT22;19456;46.104;12.908;2022-09-23T06:19:40;12.10;99.90
33093;DHT22;19456;46.104;12.908;2022-09-23T06:22:06;12.20;99.90
33093;DHT22;19456;46.104;12.908;2022-09-23T06:24:31;12.40;99.90
33093;DHT22;19456;46.104;12.908;2022-09-23T06:26:57;12.50;99.90
33093;DHT22;19456;46.104;12.908;2022-09-23T06:29:22;12.70;99.90
33093;DHT22;19456;46.104;12.908;2022-09-23T06:31:48;12.80;99.90
33093;DHT22;19456;46.104;12.908;2022-09-23T06:34:14;12.90;99.90
33093;DHT22;19456;46.104;12.908;2022-09-23T06:36:40;13.10;99.90
33093;DHT22;19456;46.104;12.908;2022-09-23T06:39:06;13.20;99.90
33093;DHT22;19456;46.104;12.908;2022-09-23T06:41:32;13.30;99.90
33093;DHT22;19456;46.104;12.908;2022-09-23T06:43:57;13.40;99.90
33093;DHT22;19456;46.104;12.908;2022-09-23T06:46:23;13.60;99.90
33093;DHT22;19456;46.104;12.908;2022-09-23T06:48:49;13.70;99.90
33093;DHT22;19456;46.104;12.908;2022-09-23T06:51:15;13.80;99.90
33093;DHT22;19456;46.104;12.908;2022-09-23T06:53:46;13.90;99.90
33093;DHT22;19456;46.104;12.908;2022-09-23T06:56:12;14.00;99.90
33093;DHT22;19456;46.104;12.908;2022-09-23T06:58:38;14.20;99.90
33093;DHT22;19456;46.104;12.908;2022-09-23T07:01:08;14.20;99.90
33093;DHT22;19456;46.104;12.908;2022-09-23T07:03:35;14.20;99.90
33093;DHT22;19456;46.104;12.908;2022-09-23T07:06:01;14.40;99.90
33093;DHT22;19456;46.104;12.908;2022-09-23T07:08:27;14.50;99.90
33093;DHT22;19456;46.104;12.908;2022-09-23T07:10:54;14.60;99.90
33093;DHT22;19456;46.104;12.908;2022-09-23T07:13:19;14.60;99.90
33093;DHT22;19456;46.104;12.908;2022-09-23T07:15:55;14.70;99.90
33093;DHT22;19456;46.104;12.908;2022-09-23T07:18:22;14.80;99.90
33093;DHT22;19456;46.104;12.908;2022-09-23T07:20:49;14.80;99.90
33093;DHT22;19456;46.104;12.908;2022-09-23T07:23:15;14.90;99.90
33093;DHT22;19456;46.104;12.908;2022-09-23T07:25:42;15.00;99.90
33093;DHT22;19456;46.104;12.908;2022-09-23T07:28:08;15.10;99.90
33093;DHT22;19456;46.104;12.908;2022-09-23T07:30:36;15.20;99.90
33093;DHT22;19456;46.104;12.908;2022-09-23T07:33:02;15.30;99.90
33093;DHT22;19456;46.104;12.908;2022-09-23T07:35:28;15.40;99.90
33093;DHT22;19456;46.104;12.908;2022-09-23T07:37:54;15.50;99.90
33093;DHT22;19456;46.104;12.908;2022-09-23T07:40:19;15.60;99.90
33093;DHT22;19456;46.104;12.908;2022-09-23T07:42:45;15.70;99.90
33093;DHT22;19456;46.104;12.908;2022-09-23T07:45:11;15.70;99.90
33093;DHT22;19456;46.104;12.908;2022-09-23T07:47:37;15.80;99.90
33093;DHT22;19456;46.104;12.908;2022-09-23T07:50:04;15.90;99.90
33093;DHT22;19456;46.104;12.908;2022-09-23T07:52:30;15.90;99.90
33093;DHT22;19456;46.104;12.908;2022-09-23T07:54:55;16.00;99.90
33093;DHT22;19456;46.104;12.908;2022-09-23T07:57:21;16.10;99.90
33093;DHT22;19456;46.104;12.908;2022-09-23T07:59:47;16.20;99.90
33093;DHT22;19456;46.104;12.908;2022-09-23T08:02:12;16.30;99.90
33093;DHT22;19456;46.104;12.908;2022-09-23T08:04:38;16.40;99.90
33093;DHT22;19456;46.104;12.908;2022-09-23T08:07:04;16.50;99.90
33093;DHT22;19456;46.104;12.908;2022-09-23T08:09:34;16.60;99.90
33093;DHT22;19456;46.104;12.908;2022-09-23T08:12:00;16.60;99.90
33093;DHT22;19456;46.104;12.908;2022-09-23T08:14:25;16.70;99.90
33093;DHT22;19456;46.104;12.908;2022-09-23T08:16:51;16.80;99.90
33093;DHT22;19456;46.104;12.908;2022-09-23T08:19:18;16.70;99.90
33093;DHT22;19456;46.104;12.908;2022-09-23T08:21:44;16.70;99.90
33093;DHT22;19456;46.104;12.908;2022-09-23T08:24:16;16.70;99.90
33093;DHT22;19456;46.104;12.908;2022-09-23T08:26:43;16.70;99.90
33093;DHT22;19456;46.104;12.908;2022-09-23T08:29:14;16.70;99.90
33093;DHT22;19456;46.104;12.908;2022-09-23T08:31:40;16.90;99.90
33093;DHT22;19456;46.104;12.908;2022-09-23T08:34:06;16.90;99.90
33093;DHT22;19456;46.104;12.908;2022-09-23T08:36:32;17.00;99.90
33093;DHT22;19456;46.104;12.908;2022-09-23T08:38:58;17.00;99.90
33093;DHT22;19456;46.104;12.908;2022-09-23T08:43:57;17.30;99.90
33093;DHT22;19456;46.104;12.908;2022-09-23T08:46:25;17.10;99.90
33093;DHT22;19456;46.104;12.908;2022-09-23T08:48:52;17.10;99.90
33093;DHT22;19456;46.104;12.908;2022-09-23T08:51:21;17.20;99.90
33093;DHT22;19456;46.104;12.908;2022-09-23T08:53:48;17.20;99.90
33093;DHT22;19456;46.104;12.908;2022-09-23T08:56:18;17.40;99.90
33093;DHT22;19456;46.104;12.908;2022-09-23T08:59:04;17.40;99.90
33093;DHT22;19456;46.104;12.908;2022-09-23T09:01:33;17.60;99.90
33093;DHT22;19456;46.104;12.908;2022-09-23T09:06:39;17.80;99.90
33093;DHT22;19456;46.104;12.908;2022-09-23T09:09:08;17.70;99.90
33093;DHT22;19456;46.104;12.908;2022-09-23T09:11:35;17.80;99.90
33093;DHT22;19456;46.104;12.908;2022-09-23T09:14:05;17.70;99.90
33093;DHT22;19456;46.104;12.908;2022-09-23T09:19:16;17.90;99.90
33093;DHT22;19456;46.104;12.908;2022-09-23T09:21:43;18.00;99.90
33093;DHT22;19456;46.104;12.908;2022-09-23T09:24:15;18.10;99.90
33093;DHT22;19456;46.104;12.908;2022-09-23T09:26:41;18.20;99.90
33093;DHT22;19456;46.104;12.908;2022-09-23T09:29:17;18.30;99.90
33093;DHT22;19456;46.104;12.908;2022-09-23T09:31:45;18.20;99.90
33093;DHT22;19456;46.104;12.908;2022-09-23T09:36:48;18.40;99.90
33093;DHT22;19456;46.104;12.908;2022-09-23T09:39:18;18.50;99.90
33093;DHT22;19456;46.104;12.908;2022-09-23T09:41:49;18.70;99.90
33093;DHT22;19456;46.104;12.908;2022-09-23T09:47:08;18.80;99.90
33093;DHT22;19456;46.104;12.908;2022-09-23T09:49:40;18.80;99.90
33093;DHT22;19456;46.104;12.908;2022-09-23T09:52:19;18.80;99.90
33093;DHT22;19456;46.104;12.908;2022-09-23T09:54:44;18.80;99.90
33093;DHT22;19456;46.104;12.908;2022-09-23T09:57:18;19.00;99.90
33093;DHT22;19456;46.104;12.908;2022-09-23T09:59:44;18.90;99.90
33093;DHT22;19456;46.104;12.908;2022-09-23T10:02:28;18.80;99.90
33093;DHT22;19456;46.104;12.908;2022-09-23T10:04:55;18.60;99.90
33093;DHT22;19456;46.104;12.908;2022-09-23T10:07:24;18.50;99.90
33093;DHT22;19456;46.104;12.908;2022-09-23T10:09:50;18.60;99.90
33093;DHT22;19456;46.104;12.908;2022-09-23T10:12:16;18.80;99.90
33093;DHT22;19456;46.104;12.908;2022-09-23T10:14:46;19.00;99.90
33093;DHT22;19456;46.104;12.908;2022-09-23T10:17:31;19.20;99.90
33093;DHT22;19456;46.104;12.908;2022-09-23T10:19:58;19.40;99.90
33093;DHT22;19456;46.104;12.908;2022-09-23T10:22:26;19.50;99.90
33093;DHT22;19456;46.104;12.908;2022-09-23T10:24:56;19.60;99.90
33093;DHT22;19456;46.104;12.908;2022-09-23T10:32:42;19.60;99.90
33093;DHT22;19456;46.104;12.908;2022-09-23T10:37:45;19.30;99.90
33093;DHT22;19456;46.104;12.908;2022-09-23T10:40:22;19.10;99.90
33093;DHT22;19456;46.104;12.908;2022-09-23T10:45:59;19.40;99.90
33093;DHT22;19456;46.104;12.908;2022-09-23T10:51:26;19.80;99.90
33093;DHT22;19456;46.104;12.908;2022-09-23T10:54:03;20.30;99.90
33093;DHT22;19456;46.104;12.908;2022-09-23T10:56:36;20.40;99.90
33093;DHT22;19456;46.104;12.908;2022-09-23T11:12:13;21.60;99.90
33093;DHT22;19456;46.104;12.908;2022-09-23T11:27:32;23.50;99.90
33093;DHT22;19456;46.104;12.908;2022-09-23T11:35:12;24.60;99.90
33093;DHT22;19456;46.104;12.908;2022-09-23T11:37:45;24.80;99.40
33093;DHT22;19456;46.104;12.908;2022-09-23T11:40:30;24.60;98.10
33093;DHT22;19456;46.104;12.908;2022-09-23T11:45:26;24.50;97.30
33093;DHT22;19456;46.104;12.908;2022-09-23T11:47:56;24.30;97.10
33093;DHT22;19456;46.104;12.908;2022-09-23T11:50:31;24.00;98.00
33093;DHT22;19456;46.104;12.908;2022-09-23T11:53:21;24.00;97.80
33093;DHT22;19456;46.104;12.908;2022-09-23T11:55:50;24.60;97.10
33093;DHT22;19456;46.104;12.908;2022-09-23T11:58:17;25.00;95.50
33093;DHT22;19456;46.104;12.908;2022-09-23T12:01:20;25.00;95.00
33093;DHT22;19456;46.104;12.908;2022-09-23T12:03:51;24.60;96.20
33093;DHT22;19456;46.104;12.908;2022-09-23T12:06:21;25.60;94.80
33093;DHT22;19456;46.104;12.908;2022-09-23T12:08:51;25.80;94.40
33093;DHT22;19456;46.104;12.908;2022-09-23T12:21:37;25.40;91.40
33093;DHT22;19456;46.104;12.908;2022-09-23T12:24:25;24.80;92.00
33093;DHT22;19456;46.104;12.908;2022-09-23T12:26:56;24.40;93.10
33093;DHT22;19456;46.104;12.908;2022-09-23T12:29:24;24.60;94.00
33093;DHT22;19456;46.104;12.908;2022-09-23T12:31:51;25.20;92.80
33093;DHT22;19456;46.104;12.908;2022-09-23T12:34:39;24.60;92.50
33093;DHT22;19456;46.104;12.908;2022-09-23T12:37:03;24.20;93.60
33093;DHT22;19456;46.104;12.908;2022-09-23T12:39:31;24.70;93.70
33093;DHT22;19456;46.104;12.908;2022-09-23T12:41:59;25.20;92.00
33093;DHT22;19456;46.104;12.908;2022-09-23T12:49:40;26.70;89.50
33093;DHT22;19456;46.104;12.908;2022-09-23T12:54:35;26.10;88.30
33093;DHT22;19456;46.104;12.908;2022-09-23T12:57:12;24.50;90.50
33093;DHT22;19456;46.104;12.908;2022-09-23T13:02:31;23.20;92.80
33093;DHT22;19456;46.104;12.908;2022-09-23T13:05:02;24.40;92.20
33093;DHT22;19456;46.104;12.908;2022-09-23T13:07:46;25.60;90.70
33093;DHT22;19456;46.104;12.908;2022-09-23T13:12:38;27.00;87.10
33093;DHT22;19456;46.104;12.908;2022-09-23T13:15:11;27.80;84.50
33093;DHT22;19456;46.104;12.908;2022-09-23T13:17:39;28.70;82.10
33093;DHT22;19456;46.104;12.908;2022-09-23T13:20:05;29.40;79.70
33093;DHT22;19456;46.104;12.908;2022-09-23T13:25:19;29.90;75.70
33093;DHT22;19456;46.104;12.908;2022-09-23T13:27:46;29.60;72.60
33093;DHT22;19456;46.104;12.908;2022-09-23T13:32:46;29.70;73.20
33093;DHT22;19456;46.104;12.908;2022-09-23T13:37:47;29.50;71.60
33093;DHT22;19456;46.104;12.908;2022-09-23T13:40:24;29.80;69.20
33093;DHT22;19456;46.104;12.908;2022-09-23T13:42:51;29.00;69.50
33093;DHT22;19456;46.104;12.908;2022-09-23T13:45:18;29.50;70.10
33093;DHT22;19456;46.104;12.908;2022-09-23T13:47:45;30.00;68.80
33093;DHT22;19456;46.104;12.908;2022-09-23T13:50:16;29.70;66.90
33093;DHT22;19456;46.104;12.908;2022-09-23T13:52:43;28.50;68.10
33093;DHT22;19456;46.104;12.908;2022-09-23T13:55:42;28.10;70.10
33093;DHT22;19456;46.104;12.908;2022-09-23T13:58:10;26.90;74.00
33093;DHT22;19456;46.104;12.908;2022-09-23T14:00:36;26.80;73.00
33093;DHT22;19456;46.104;12.908;2022-09-23T14:03:14;26.80;73.20
33093;DHT22;19456;46.104;12.908;2022-09-23T14:05:40;26.70;74.50
33093;DHT22;19456;46.104;12.908;2022-09-23T14:08:06;27.10;74.40
33093;DHT22;19456;46.104;12.908;2022-09-23T14:10:32;28.40;72.60
33093;DHT22;19456;46.104;12.908;2022-09-23T14:12:58;29.20;69.40
33093;DHT22;19456;46.104;12.908;2022-09-23T14:15:23;28.90;69.20
33093;DHT22;19456;46.104;12.908;2022-09-23T14:17:53;27.20;70.20
33093;DHT22;19456;46.104;12.908;2022-09-23T14:20:22;25.70;73.00
33093;DHT22;19456;46.104;12.908;2022-09-23T14:23:01;24.40;75.80
33093;DHT22;19456;46.104;12.908;2022-09-23T14:25:26;23.80;79.10
33093;DHT22;19456;46.104;12.908;2022-09-23T14:27:52;23.60;81.70
33093;DHT22;19456;46.104;12.908;2022-09-23T14:30:18;23.60;82.70
33093;DHT22;19456;46.104;12.908;2022-09-23T14:32:44;23.90;82.80
33093;DHT22;19456;46.104;12.908;2022-09-23T14:37:40;26.80;77.00
33093;DHT22;19456;46.104;12.908;2022-09-23T14:40:27;27.20;73.60
33093;DHT22;19456;46.104;12.908;2022-09-23T14:45:38;27.60;72.70
33093;DHT22;19456;46.104;12.908;2022-09-23T14:48:06;28.20;70.80
33093;DHT22;19456;46.104;12.908;2022-09-23T14:50:32;27.60;71.80
33093;DHT22;19456;46.104;12.908;2022-09-23T14:53:48;27.00;73.50
33093;DHT22;19456;46.104;12.908;2022-09-23T14:55:49;25.90;76.00
33093;DHT22;19456;46.104;12.908;2022-09-23T14:58:17;24.80;78.10
33093;DHT22;19456;46.104;12.908;2022-09-23T15:03:18;23.50;82.40
33093;DHT22;19456;46.104;12.908;2022-09-23T15:05:46;23.10;85.20
33093;DHT22;19456;46.104;12.908;2022-09-23T15:08:15;22.80;89.30
33093;DHT22;19456;46.104;12.908;2022-09-23T15:10:41;22.40;92.80
33093;DHT22;19456;46.104;12.908;2022-09-23T15:13:08;22.30;93.60
33093;DHT22;19456;46.104;12.908;2022-09-23T15:15:36;22.10;94.90
33093;DHT22;19456;46.104;12.908;2022-09-23T15:18:06;22.00;95.90
33093;DHT22;19456;46.104;12.908;2022-09-23T15:20:32;21.80;96.70
33093;DHT22;19456;46.104;12.908;2022-09-23T15:22:58;21.80;97.40
33093;DHT22;19456;46.104;12.908;2022-09-23T15:25:34;21.70;98.10
33093;DHT22;19456;46.104;12.908;2022-09-23T15:30:26;21.50;98.90
33093;DHT22;19456;46.104;12.908;2022-09-23T15:32:52;21.40;99.20
33093;DHT22;19456;46.104;12.908;2022-09-23T15:35:19;21.40;99.90
33093;DHT22;19456;46.104;12.908;2022-09-23T15:37:46;21.30;99.90
33093;DHT22;19456;46.104;12.908;2022-09-23T15:42:43;21.00;99.90
33093;DHT22;19456;46.104;12.908;2022-09-23T15:45:09;21.00;99.90
33093;DHT22;19456;46.104;12.908;2022-09-23T15:47:35;20.90;99.90
33093;DHT22;19456;46.104;12.908;2022-09-23T15:50:01;20.90;99.90
33093;DHT22;19456;46.104;12.908;2022-09-23T15:52:26;20.70;99.90
33093;DHT22;19456;46.104;12.908;2022-09-23T15:54:52;20.70;99.90
33093;DHT22;19456;46.104;12.908;2022-09-23T15:57:17;20.70;99.90
33093;DHT22;19456;46.104;12.908;2022-09-23T15:59:43;20.60;99.90
33093;DHT22;19456;46.104;12.908;2022-09-23T16:02:14;20.60;99.90
33093;DHT22;19456;46.104;12.908;2022-09-23T16:04:42;20.60;99.90
33093;DHT22;19456;46.104;12.908;2022-09-23T16:07:11;20.70;99.90
33093;DHT22;19456;46.104;12.908;2022-09-23T16:09:37;20.70;99.90
33093;DHT22;19456;46.104;12.908;2022-09-23T16:12:02;20.60;99.90
33093;DHT22;19456;46.104;12.908;2022-09-23T16:14:28;20.60;99.90
33093;DHT22;19456;46.104;12.908;2022-09-23T16:16:56;20.70;99.90
33093;DHT22;19456;46.104;12.908;2022-09-23T16:19:22;20.60;99.90
33093;DHT22;19456;46.104;12.908;2022-09-23T16:21:47;20.60;99.90
33093;DHT22;19456;46.104;12.908;2022-09-23T16:24:14;20.50;99.90
33093;DHT22;19456;46.104;12.908;2022-09-23T16:26:40;20.50;99.90
33093;DHT22;19456;46.104;12.908;2022-09-23T16:29:08;20.50;99.90
33093;DHT22;19456;46.104;12.908;2022-09-23T16:31:33;20.50;99.90
33093;DHT22;19456;46.104;12.908;2022-09-23T16:34:00;20.30;99.90
33093;DHT22;19456;46.104;12.908;2022-09-23T16:36:27;20.20;99.90
33093;DHT22;19456;46.104;12.908;2022-09-23T16:38:55;20.00;99.90
33093;DHT22;19456;46.104;12.908;2022-09-23T16:41:21;19.90;99.90
33093;DHT22;19456;46.104;12.908;2022-09-23T16:43:48;19.80;99.90
33093;DHT22;19456;46.104;12.908;2022-09-23T16:46:14;19.70;99.90
33093;DHT22;19456;46.104;12.908;2022-09-23T16:48:40;19.60;99.90
33093;DHT22;19456;46.104;12.908;2022-09-23T16:51:06;19.50;99.90
33093;DHT22;19456;46.104;12.908;2022-09-23T16:53:32;19.40;99.90
33093;DHT22;19456;46.104;12.908;2022-09-23T16:56:05;19.10;99.90
33093;DHT22;19456;46.104;12.908;2022-09-23T16:58:35;19.10;99.90
33093;DHT22;19456;46.104;12.908;2022-09-23T17:01:00;19.00;99.90
33093;DHT22;19456;46.104;12.908;2022-09-23T17:03:44;19.00;99.90
33093;DHT22;19456;46.104;12.908;2022-09-23T17:06:11;18.90;99.90
33093;DHT22;19456;46.104;12.908;2022-09-23T17:08:37;18.90;99.90
33093;DHT22;19456;46.104;12.908;2022-09-23T17:11:05;18.90;99.90
33093;DHT22;19456;46.104;12.908;2022-09-23T17:13:31;18.80;99.90
33093;DHT22;19456;46.104;12.908;2022-09-23T17:15:56;18.70;99.90
33093;DHT22;19456;46.104;12.908;2022-09-23T17:18:22;18.70;99.90
33093;DHT22;19456;46.104;12.908;2022-09-23T17:21:04;18.60;99.90
33093;DHT22;19456;46.104;12.908;2022-09-23T17:23:30;18.60;99.90
33093;DHT22;19456;46.104;12.908;2022-09-23T17:25:57;18.60;99.90
33093;DHT22;19456;46.104;12.908;2022-09-23T17:28:23;18.60;99.90
33093;DHT22;19456;46.104;12.908;2022-09-23T17:30:55;18.60;99.90
33093;DHT22;19456;46.104;12.908;2022-09-23T17:33:22;18.40;99.90
33093;DHT22;19456;46.104;12.908;2022-09-23T17:35:47;18.30;99.90
33093;DHT22;19456;46.104;12.908;2022-09-23T17:38:13;18.20;99.90
33093;DHT22;19456;46.104;12.908;2022-09-23T17:40:39;18.10;99.90
33093;DHT22;19456;46.104;12.908;2022-09-23T17:43:06;18.10;99.90
33093;DHT22;19456;46.104;12.908;2022-09-23T17:45:34;17.90;99.90
33093;DHT22;19456;46.104;12.908;2022-09-23T17:48:01;17.70;99.90
33093;DHT22;19456;46.104;12.908;2022-09-23T17:53:12;17.60;99.90
33093;DHT22;19456;46.104;12.908;2022-09-23T17:55:41;17.60;99.90
33093;DHT22;19456;46.104;12.908;2022-09-23T17:58:06;17.50;99.90
33093;DHT22;19456;46.104;12.908;2022-09-23T18:00:32;17.40;99.90
33093;DHT22;19456;46.104;12.908;2022-09-23T18:02:57;17.40;99.90
33093;DHT22;19456;46.104;12.908;2022-09-23T18:05:23;17.30;99.90
33093;DHT22;19456;46.104;12.908;2022-09-23T18:07:48;17.40;99.90
33093;DHT22;19456;46.104;12.908;2022-09-23T18:10:14;17.40;99.90
33093;DHT22;19456;46.104;12.908;2022-09-23T18:12:39;17.10;99.90
33093;DHT22;19456;46.104;12.908;2022-09-23T18:15:05;16.70;99.90